createdAt,value
2018-03-16T00:02:04.481Z,45.38
2018-03-16T00:04:30.960Z,42.55
2018-03-16T00:06:58.238Z,43.58
2018-03-16T00:09:24.630Z,40.35
2018-03-16T00:11:51.150Z,42.70
2018-03-16T00:14:18.342Z,42.47
2018-03-16T00:16:44.788Z,50.30
2018-03-16T00:19:11.233Z,43.13
2018-03-16T00:21:38.509Z,42.33
2018-03-16T00:24:04.947Z,43.63
2018-03-16T00:26:32.105Z,42.60
2018-03-16T00:28:59.485Z,45.65
2018-03-16T00:31:25.928Z,41.45
2018-03-16T00:33:52.354Z,40.80
2018-03-16T00:36:18.783Z,47.78
2018-03-16T00:38:45.940Z,40.53
2018-03-16T00:41:13.107Z,42.58
2018-03-16T00:43:39.508Z,42.30
2018-03-16T00:46:06.653Z,41.50
2018-03-16T00:48:33.082Z,43.25
2018-03-16T00:50:59.481Z,43.78
2018-03-16T00:53:25.875Z,46.37
2018-03-16T00:55:52.377Z,44.33
2018-03-16T00:58:18.826Z,43.50
2018-03-16T01:00:45.993Z,46.47
2018-03-16T01:03:13.169Z,48.78
2018-03-16T01:05:40.328Z,43.22
2018-03-16T01:08:06.765Z,41.70
2018-03-16T01:10:33.187Z,46.58
2018-03-16T01:12:59.623Z,51.00
2018-03-16T01:15:26.027Z,45.10
2018-03-16T01:17:52.942Z,47.17
2018-03-16T01:20:20.014Z,44.28
2018-03-16T01:22:46.418Z,43.87
2018-03-16T01:25:12.832Z,44.75
2018-03-16T01:27:39.270Z,46.03
2018-03-16T01:30:06.457Z,40.92
2018-03-16T01:32:33.342Z,43.92
2018-03-16T01:34:59.805Z,44.22
2018-03-16T01:37:26.197Z,41.60
2018-03-16T01:39:52.625Z,47.55
2018-03-16T01:42:19.057Z,45.03
2018-03-16T01:44:45.484Z,47.83
2018-03-16T01:47:12.637Z,41.78
2018-03-16T01:49:39.116Z,42.47
2018-03-16T01:52:06.270Z,43.35
2018-03-16T01:54:32.694Z,46.85
2018-03-16T01:56:59.200Z,42.47
2018-03-16T01:59:26.378Z,43.47
2018-03-16T02:01:52.785Z,42.90
2018-03-16T02:04:19.222Z,43.08
2018-03-16T02:06:45.741Z,43.75
2018-03-16T02:09:16.192Z,40.12
2018-03-16T02:11:43.259Z,42.45
2018-03-16T02:14:10.385Z,41.37
2018-03-16T02:16:36.789Z,43.40
2018-03-16T02:19:03.228Z,40.67
2018-03-16T02:21:30.412Z,45.12
2018-03-16T02:23:57.590Z,43.67
2018-03-16T02:26:24.062Z,45.63
2018-03-16T02:28:51.192Z,42.28
2018-03-16T02:31:17.622Z,43.25
2018-03-16T02:33:44.029Z,43.03
2018-03-16T02:36:10.454Z,45.12
2018-03-16T02:38:36.871Z,48.90
2018-03-16T02:41:03.296Z,51.85
2018-03-16T02:43:29.723Z,52.35
2018-03-16T02:45:56.919Z,53.20
2018-03-16T02:48:23.369Z,46.80
2018-03-16T02:50:49.814Z,46.42
2018-03-16T02:53:16.999Z,49.15
2018-03-16T02:55:44.140Z,49.60
2018-03-16T02:58:10.576Z,53.45
2018-03-16T03:00:36.983Z,46.60
2018-03-16T03:03:04.130Z,50.60
2018-03-16T03:05:30.523Z,49.63
2018-03-16T03:07:56.910Z,45.60
2018-03-16T03:10:23.299Z,50.85
2018-03-16T03:12:50.450Z,45.05
2018-03-16T03:15:16.903Z,48.28
2018-03-16T03:17:43.518Z,51.30
2018-03-16T03:20:09.935Z,51.20
2018-03-16T03:22:36.357Z,52.78
2018-03-16T03:25:02.836Z,46.00
2018-03-16T03:27:29.274Z,52.25
2018-03-16T03:29:55.790Z,49.47
2018-03-16T03:32:22.982Z,48.70
2018-03-16T03:34:49.470Z,51.15
2018-03-16T03:37:15.979Z,47.28
2018-03-16T03:39:43.252Z,48.97
2018-03-16T03:42:10.403Z,49.70
2018-03-16T03:44:36.803Z,53.22
2018-03-16T03:47:03.643Z,47.15
2018-03-16T03:49:30.808Z,47.80
2018-03-16T03:51:57.993Z,45.12
2018-03-16T03:54:24.409Z,46.10
2018-03-16T03:56:50.816Z,45.88
2018-03-16T03:59:17.249Z,49.65
2018-03-16T04:01:44.529Z,48.38
2018-03-16T04:04:11.855Z,51.42
2018-03-16T04:06:38.255Z,47.72
2018-03-16T04:09:05.463Z,47.45
2018-03-16T04:11:31.913Z,49.92
2018-03-16T04:13:58.447Z,50.47
2018-03-16T04:16:25.620Z,45.40
2018-03-16T04:18:52.796Z,46.33
2018-03-16T04:21:19.253Z,46.97
2018-03-16T04:23:45.671Z,44.90
2018-03-16T04:26:12.160Z,49.47
2018-03-16T04:28:38.617Z,46.80
2018-03-16T04:31:05.895Z,48.67
2018-03-16T04:33:32.304Z,49.53
2018-03-16T04:35:58.744Z,46.08
2018-03-16T04:38:25.259Z,43.53
2018-03-16T04:40:52.454Z,46.53
2018-03-16T04:43:18.911Z,46.00
2018-03-16T04:45:45.821Z,51.05
2018-03-16T04:48:12.254Z,54.03
2018-03-16T04:50:38.646Z,46.08
2018-03-16T04:53:05.056Z,48.30
2018-03-16T04:55:31.474Z,43.13
2018-03-16T04:57:58.633Z,46.83
2018-03-16T05:00:25.805Z,48.70
2018-03-16T05:02:52.945Z,50.30
2018-03-16T05:05:19.394Z,49.40
2018-03-16T05:07:45.781Z,48.17
2018-03-16T05:10:12.150Z,49.50
2018-03-16T05:12:39.974Z,49.17
2018-03-16T05:15:06.381Z,47.33
2018-03-16T05:17:32.771Z,51.15
2018-03-16T05:19:59.175Z,51.67
2018-03-16T05:22:25.578Z,54.80
2018-03-16T05:24:51.960Z,50.97
2018-03-16T05:27:19.117Z,51.67
2018-03-16T05:29:45.529Z,51.92
2018-03-16T05:32:12.699Z,51.05
2018-03-16T05:34:39.138Z,51.55
2018-03-16T05:37:05.635Z,50.17
2018-03-16T05:39:32.920Z,53.30
2018-03-16T05:41:59.344Z,51.47
2018-03-16T05:44:26.490Z,48.55
2018-03-16T05:46:52.907Z,52.47
2018-03-16T05:49:19.343Z,53.60
2018-03-16T05:51:46.499Z,53.55
2018-03-16T05:54:12.889Z,46.40
2018-03-16T05:56:39.429Z,50.78
2018-03-16T05:59:06.578Z,44.35
2018-03-16T06:01:33.059Z,45.95
2018-03-16T06:03:59.482Z,46.70
2018-03-16T06:06:25.884Z,48.47
2018-03-16T06:08:52.314Z,47.10
2018-03-16T06:11:19.505Z,52.45
2018-03-16T06:13:45.946Z,46.88
2018-03-16T06:16:13.804Z,48.10
2018-03-16T06:18:40.208Z,46.08
2018-03-16T06:21:06.608Z,44.00
2018-03-16T06:23:33.044Z,48.97
2018-03-16T06:25:59.486Z,45.35
2018-03-16T06:28:25.905Z,44.13
2018-03-16T06:30:53.100Z,50.10
2018-03-16T06:33:20.259Z,45.67
2018-03-16T06:35:46.683Z,47.97
2018-03-16T06:38:13.087Z,55.55
2018-03-16T06:40:40.123Z,45.70
2018-03-16T06:43:07.287Z,47.10
2018-03-16T06:45:34.467Z,47.22
2018-03-16T06:48:01.249Z,47.90
2018-03-16T06:50:28.414Z,47.78
2018-03-16T06:52:55.550Z,45.97
2018-03-16T06:55:22.050Z,48.87
2018-03-16T06:57:49.717Z,45.42
2018-03-16T07:00:16.084Z,52.55
2018-03-16T07:02:42.542Z,46.65
2018-03-16T07:05:09.730Z,51.42
2018-03-16T07:07:36.172Z,47.80
2018-03-16T07:10:03.440Z,47.75
2018-03-16T07:12:34.813Z,46.37
2018-03-16T07:15:13.516Z,45.33
2018-03-16T07:17:39.921Z,52.92
2018-03-16T07:20:06.338Z,43.80
2018-03-16T07:22:33.531Z,46.53
2018-03-16T07:25:00.689Z,49.20
2018-03-16T07:27:27.846Z,43.67
2018-03-16T07:29:55.002Z,48.83
2018-03-16T07:32:21.424Z,49.83
2018-03-16T07:34:47.845Z,47.20
2018-03-16T07:37:14.994Z,47.50
2018-03-16T07:39:43.260Z,43.15
2018-03-16T07:42:09.694Z,45.03
2018-03-16T07:44:36.129Z,45.12
2018-03-16T07:47:03.411Z,50.55
2018-03-16T07:49:29.841Z,44.53
2018-03-16T07:51:56.269Z,45.70
2018-03-16T07:54:22.720Z,45.67
2018-03-16T07:56:49.161Z,47.85
2018-03-16T07:59:15.688Z,43.78
2018-03-16T08:01:42.118Z,49.00
2018-03-16T08:04:08.560Z,49.90
2018-03-16T08:06:35.001Z,43.63
2018-03-16T08:09:01.944Z,41.47
2018-03-16T08:11:28.395Z,41.67
2018-03-16T08:13:54.894Z,39.28
2018-03-16T08:16:21.317Z,40.50
2018-03-16T08:18:47.742Z,38.70
2018-03-16T08:21:14.927Z,38.88
2018-03-16T08:23:41.361Z,33.63
2018-03-16T08:26:08.537Z,30.65
2018-03-16T08:28:35.794Z,34.05
2018-03-16T08:31:02.485Z,35.60
2018-03-16T08:33:29.008Z,37.30
2018-03-16T08:35:56.295Z,33.60
2018-03-16T08:38:22.764Z,35.15
2018-03-16T08:40:49.910Z,39.45
2018-03-16T08:43:16.362Z,34.88
2018-03-16T08:45:42.789Z,36.03
2018-03-16T08:48:09.247Z,38.65
2018-03-16T08:50:35.707Z,32.47
2018-03-16T08:53:02.821Z,26.20
2018-03-16T08:55:30.064Z,19.95
2018-03-16T08:57:56.506Z,22.35
2018-03-16T09:00:22.962Z,16.58
2018-03-16T09:02:49.394Z,18.90
2018-03-16T09:05:15.959Z,19.08
2018-03-16T09:07:42.581Z,22.70
2018-03-16T09:10:09.768Z,37.50
2018-03-16T09:12:37.090Z,35.42
2018-03-16T09:15:03.603Z,40.88
2018-03-16T09:17:30.774Z,41.05
2018-03-16T09:19:57.960Z,32.03
2018-03-16T09:22:24.608Z,30.25
2018-03-16T09:24:51.097Z,29.90
2018-03-16T09:27:17.535Z,22.40
2018-03-16T09:29:43.994Z,22.23
2018-03-16T09:32:11.179Z,19.27
2018-03-16T09:34:37.617Z,20.98
2018-03-16T09:37:04.122Z,19.08
2018-03-16T09:39:30.581Z,18.92
2018-03-16T09:41:57.056Z,22.42
2018-03-16T09:44:24.964Z,23.52
2018-03-16T09:46:51.478Z,18.37
2018-03-16T09:49:17.980Z,17.40
2018-03-16T09:51:45.275Z,16.48
2018-03-16T09:54:11.778Z,17.02
2018-03-16T09:56:38.262Z,19.17
2018-03-16T09:59:04.686Z,16.52
2018-03-16T10:01:31.083Z,16.85
2018-03-16T10:03:57.520Z,14.35
2018-03-16T10:06:24.670Z,20.25
2018-03-16T10:08:51.107Z,16.17
2018-03-16T10:11:17.684Z,14.73
2018-03-16T10:13:44.175Z,13.70
2018-03-16T10:16:11.334Z,12.57
2018-03-16T10:18:37.805Z,14.50
2018-03-16T10:21:05.046Z,30.50
2018-03-16T10:23:31.538Z,60.00
2018-03-16T10:25:59.912Z,25.80
2018-03-16T10:28:26.352Z,25.20
2018-03-16T10:30:52.790Z,47.88
2018-03-16T10:33:19.206Z,26.85
2018-03-16T10:35:45.645Z,20.98
2018-03-16T10:38:13.057Z,12.85
2018-03-16T10:40:39.595Z,12.55
2018-03-16T10:43:06.776Z,10.63
2018-03-16T10:45:33.232Z,11.45
2018-03-16T10:47:59.786Z,11.20
2018-03-16T10:50:26.330Z,9.13
2018-03-16T10:52:53.720Z,10.32
2018-03-16T10:55:20.956Z,11.80
2018-03-16T10:57:47.515Z,9.85
2018-03-16T11:00:15.238Z,12.45
2018-03-16T11:02:47.829Z,11.50
2018-03-16T11:05:17.790Z,12.00
2018-03-16T11:07:44.296Z,26.10
2018-03-16T11:10:10.750Z,12.98
2018-03-16T11:12:37.218Z,27.25
2018-03-16T11:15:04.507Z,35.35
2018-03-16T11:17:31.697Z,40.97
2018-03-16T11:19:58.113Z,41.35
2018-03-16T11:22:24.578Z,35.30
2018-03-16T11:24:51.760Z,18.62
2018-03-16T11:27:18.919Z,16.02
2018-03-16T11:29:45.944Z,23.02
2018-03-16T11:32:12.393Z,14.38
2018-03-16T11:34:38.854Z,44.90
2018-03-16T11:37:05.273Z,16.65
2018-03-16T11:39:32.395Z,15.48
2018-03-16T11:41:58.817Z,12.80
2018-03-16T11:44:25.260Z,12.63
2018-03-16T11:46:51.815Z,16.58
2018-03-16T11:49:18.977Z,55.35
2018-03-16T11:51:46.147Z,14.95
2018-03-16T11:54:12.682Z,11.73
2018-03-16T11:56:39.138Z,13.18
2018-03-16T11:59:05.556Z,12.85
2018-03-16T12:01:31.967Z,13.80
2018-03-16T12:03:59.113Z,12.50
2018-03-16T12:06:25.612Z,13.93
2018-03-16T12:08:52.778Z,12.80
2018-03-16T12:11:19.184Z,12.48
2018-03-16T12:13:45.696Z,12.68
2018-03-16T12:16:12.848Z,11.98
2018-03-16T12:18:39.262Z,13.62
2018-03-16T12:21:05.627Z,12.82
2018-03-16T12:23:32.147Z,13.68
2018-03-16T12:25:58.591Z,11.35
2018-03-16T12:28:49.113Z,17.30
2018-03-16T12:30:52.182Z,13.10
2018-03-16T12:33:18.654Z,13.73
2018-03-16T12:35:45.131Z,12.15
2018-03-16T12:38:12.928Z,12.50
2018-03-16T12:40:39.380Z,12.90
2018-03-16T12:43:05.830Z,11.57
2018-03-16T12:45:33.206Z,12.07
2018-03-16T12:48:00.348Z,16.67
2018-03-16T12:50:26.769Z,14.73
2018-03-16T12:52:53.171Z,10.85
2018-03-16T12:55:19.603Z,10.13
2018-03-16T12:57:46.041Z,11.43
2018-03-16T13:00:12.462Z,10.50
2018-03-16T13:02:38.894Z,12.52
2018-03-16T13:05:06.052Z,10.35
2018-03-16T13:07:32.474Z,11.00
2018-03-16T13:09:58.893Z,21.30
2018-03-16T13:12:26.065Z,47.80
2018-03-16T13:14:53.953Z,20.80
2018-03-16T13:17:21.234Z,10.60
2018-03-16T13:19:47.792Z,11.75
2018-03-16T13:22:14.184Z,10.35
2018-03-16T13:24:40.627Z,8.93
2018-03-16T13:27:07.158Z,8.68
2018-03-16T13:29:34.337Z,8.27
2018-03-16T13:32:01.494Z,8.10
2018-03-16T13:34:28.882Z,8.35
2018-03-16T13:36:55.441Z,10.00
2018-03-16T13:39:21.926Z,10.45
2018-03-16T13:41:51.038Z,10.10
2018-03-16T13:44:17.463Z,11.68
2018-03-16T13:46:44.740Z,11.07
2018-03-16T13:49:11.939Z,12.73
2018-03-16T13:51:38.471Z,13.13
2018-03-16T13:54:04.972Z,12.45
2018-03-16T13:56:31.490Z,12.00
2018-03-16T13:58:58.043Z,15.10
2018-03-16T14:01:25.245Z,12.37
2018-03-16T14:03:51.665Z,12.90
2018-03-16T14:06:18.946Z,14.25
2018-03-16T14:08:45.431Z,11.93
2018-03-16T14:11:11.907Z,14.13
2018-03-16T14:13:38.381Z,14.00
2018-03-16T14:16:04.977Z,16.37
2018-03-16T14:18:32.787Z,15.18
2018-03-16T14:20:59.260Z,18.10
2018-03-16T14:23:25.778Z,17.98
2018-03-16T14:25:52.972Z,16.05
2018-03-16T14:28:19.511Z,19.83
2018-03-16T14:30:45.927Z,17.52
2018-03-16T14:33:12.360Z,16.25
2018-03-16T14:35:42.297Z,19.65
2018-03-16T14:38:08.717Z,19.67
2018-03-16T14:40:35.167Z,18.12
2018-03-16T14:43:03.770Z,19.45
2018-03-16T14:45:30.222Z,21.25
2018-03-16T14:47:57.407Z,26.05
2018-03-16T14:50:23.820Z,22.45
2018-03-16T14:52:50.242Z,21.80
2018-03-16T14:55:16.669Z,21.83
2018-03-16T14:57:43.152Z,21.87
2018-03-16T15:00:09.616Z,21.67
2018-03-16T15:02:36.053Z,26.90
2018-03-16T15:05:02.657Z,27.05
2018-03-16T15:07:29.126Z,26.48
2018-03-16T15:09:55.707Z,22.87
2018-03-16T15:12:22.179Z,21.60
2018-03-16T15:14:48.614Z,20.42
2018-03-16T15:17:15.862Z,20.37
2018-03-16T15:19:42.260Z,24.45
2018-03-16T15:22:08.673Z,22.33
2018-03-16T15:24:35.166Z,19.15
2018-03-16T15:27:02.313Z,28.67
2018-03-16T15:29:29.606Z,22.55
2018-03-16T15:31:56.866Z,20.08
2018-03-16T15:34:23.370Z,16.85
2018-03-16T15:36:49.831Z,19.27
2018-03-16T15:39:16.325Z,18.75
2018-03-16T15:41:42.865Z,17.35
2018-03-16T15:44:09.647Z,14.82
2018-03-16T15:46:36.111Z,17.58
2018-03-16T15:49:03.414Z,15.70
2018-03-16T15:51:29.811Z,14.85
2018-03-16T15:53:56.272Z,15.55
2018-03-16T15:56:22.738Z,16.87
2018-03-16T15:58:49.212Z,13.25
2018-03-16T16:01:15.642Z,17.37
2018-03-16T16:03:42.713Z,22.27
2018-03-16T16:06:09.155Z,18.42
2018-03-16T16:08:35.667Z,17.52
2018-03-16T16:11:02.185Z,19.30
2018-03-16T16:13:28.584Z,15.07
2018-03-16T16:15:54.998Z,18.27
2018-03-16T16:18:21.941Z,15.38
2018-03-16T16:20:48.524Z,16.37
2018-03-16T16:23:15.213Z,18.20
2018-03-16T16:25:42.357Z,15.40
2018-03-16T16:28:08.857Z,14.85
2018-03-16T16:30:35.316Z,19.85
2018-03-16T16:33:02.077Z,14.95
2018-03-16T16:35:28.810Z,21.02
2018-03-16T16:37:56.022Z,16.52
2018-03-16T16:40:22.875Z,15.40
2018-03-16T16:42:49.738Z,18.60
2018-03-16T16:45:16.203Z,19.00
2018-03-16T16:47:43.177Z,19.60
2018-03-16T16:50:10.249Z,21.70
2018-03-16T16:52:36.850Z,14.70
2018-03-16T16:55:03.695Z,21.67
2018-03-16T16:57:30.202Z,21.90
2018-03-16T16:59:57.594Z,19.08
2018-03-16T17:02:24.080Z,17.10
2018-03-16T17:04:50.752Z,19.60
2018-03-16T17:07:17.164Z,20.37
2018-03-16T17:09:43.613Z,18.70
2018-03-16T17:12:10.761Z,19.95
2018-03-16T17:14:37.188Z,22.85
2018-03-16T17:17:03.604Z,22.95
2018-03-16T17:19:30.779Z,24.12
2018-03-16T17:21:57.228Z,28.15
2018-03-16T17:24:24.610Z,26.33
2018-03-16T17:26:51.782Z,27.62
2018-03-16T17:29:18.969Z,31.50
2018-03-16T17:31:45.427Z,26.85
2018-03-16T17:34:11.969Z,27.40
2018-03-16T17:36:39.141Z,26.83
2018-03-16T17:39:06.336Z,24.00
2018-03-16T17:41:32.784Z,24.98
2018-03-16T17:43:59.224Z,25.35
2018-03-16T17:46:26.350Z,28.05
2018-03-16T17:48:52.803Z,22.17
2018-03-16T17:51:19.266Z,25.40
2018-03-16T17:53:45.744Z,26.23
2018-03-16T17:56:12.189Z,25.88
2018-03-16T17:58:38.636Z,27.75
2018-03-16T18:01:05.138Z,25.50
2018-03-16T18:03:32.320Z,23.87
2018-03-16T18:05:59.251Z,22.87
2018-03-16T18:08:26.124Z,22.62
2018-03-16T18:10:53.419Z,26.23
2018-03-16T18:13:21.300Z,21.80
2018-03-16T18:15:47.759Z,26.15
2018-03-16T18:18:14.968Z,24.05
2018-03-16T18:20:41.394Z,23.80
2018-03-16T18:23:07.834Z,22.50
2018-03-16T18:25:35.062Z,24.92
2018-03-16T18:28:02.234Z,26.60
2018-03-16T18:30:28.750Z,23.00
2018-03-16T18:32:55.191Z,26.23
2018-03-16T18:35:22.477Z,24.67
2018-03-16T18:37:49.716Z,26.42
2018-03-16T18:40:16.415Z,25.52
2018-03-16T18:42:42.947Z,26.87
2018-03-16T18:45:09.464Z,26.00
2018-03-16T18:47:35.992Z,30.30
2018-03-16T18:50:02.634Z,29.52
2018-03-16T18:52:30.436Z,27.87
2018-03-16T18:54:57.606Z,31.15
2018-03-16T18:57:24.164Z,26.60
2018-03-16T18:59:51.495Z,26.48
2018-03-16T19:02:18.203Z,27.10
2018-03-16T19:04:44.817Z,29.30
2018-03-16T19:07:12.094Z,29.42
2018-03-16T19:09:38.838Z,29.33
2018-03-16T19:12:05.273Z,31.05
2018-03-16T19:14:32.328Z,26.27
2018-03-16T19:16:58.732Z,28.30
2018-03-16T19:19:25.153Z,26.30
2018-03-16T19:21:51.611Z,26.33
2018-03-16T19:24:18.000Z,28.52
2018-03-16T19:26:44.421Z,28.27
2018-03-16T19:29:10.992Z,28.83
2018-03-16T19:31:37.517Z,35.50
2018-03-16T19:34:04.794Z,30.25
2018-03-16T19:36:31.957Z,29.42
2018-03-16T19:38:58.395Z,28.95
2018-03-16T19:41:24.838Z,30.55
2018-03-16T19:43:51.333Z,26.65
2018-03-16T19:46:18.518Z,29.60
2018-03-16T19:48:45.776Z,26.48
2018-03-16T19:51:12.933Z,26.77
2018-03-16T19:53:39.342Z,29.02
2018-03-16T19:56:05.987Z,29.17
2018-03-16T19:58:32.509Z,28.10
2018-03-16T20:00:58.941Z,26.20
2018-03-16T20:03:25.473Z,28.08
2018-03-16T20:05:52.080Z,27.35
2018-03-16T20:08:18.524Z,27.62
2018-03-16T20:10:45.106Z,31.20
2018-03-16T20:13:11.674Z,27.75
2018-03-16T20:15:38.823Z,28.00
2018-03-16T20:18:05.300Z,22.08
2018-03-16T20:20:31.971Z,25.75
2018-03-16T20:22:58.627Z,29.35
2018-03-16T20:25:25.153Z,26.70
2018-03-16T20:27:51.646Z,27.02
2018-03-16T20:30:18.126Z,28.65
2018-03-16T20:32:44.654Z,27.17
2018-03-16T20:35:12.030Z,24.73
2018-03-16T20:37:38.518Z,27.50
2018-03-16T20:40:05.250Z,27.15
2018-03-16T20:42:32.628Z,27.50
2018-03-16T20:44:59.083Z,28.30
2018-03-16T20:47:27.073Z,30.73
2018-03-16T20:49:54.350Z,26.10
2018-03-16T20:52:20.829Z,26.35
2018-03-16T20:54:47.302Z,29.25
2018-03-16T20:57:13.739Z,27.10
2018-03-16T20:59:41.232Z,29.08
2018-03-16T21:02:07.957Z,26.95
2018-03-16T21:04:35.109Z,26.98
2018-03-16T21:07:01.564Z,26.00
2018-03-16T21:09:28.861Z,31.05
2018-03-16T21:11:56.141Z,26.58
2018-03-16T21:14:22.698Z,28.62
2018-03-16T21:16:49.216Z,27.20
2018-03-16T21:19:15.814Z,27.05
2018-03-16T21:21:42.246Z,28.08
2018-03-16T21:24:08.742Z,27.92
2018-03-16T21:26:36.069Z,28.77
2018-03-16T21:29:02.563Z,29.08
2018-03-16T21:31:30.035Z,30.10
2018-03-16T21:33:57.313Z,30.58
2018-03-16T21:36:24.483Z,28.70
2018-03-16T21:38:51.712Z,28.60
2018-03-16T21:41:18.316Z,27.70
2018-03-16T21:43:45.503Z,26.67
2018-03-16T21:46:11.955Z,29.40
2018-03-16T21:48:38.404Z,28.20
2018-03-16T21:51:04.857Z,30.30
2018-03-16T21:53:31.315Z,29.63
2018-03-16T21:55:57.791Z,29.20
2018-03-16T21:58:24.330Z,28.80
2018-03-16T22:00:51.197Z,28.85
2018-03-16T22:03:17.664Z,27.48
2018-03-16T22:05:44.210Z,27.37
2018-03-16T22:08:10.658Z,24.95
2018-03-16T22:10:38.041Z,25.83
2018-03-16T22:13:04.568Z,26.33
2018-03-16T22:15:31.776Z,24.85
2018-03-16T22:17:58.307Z,27.25
2018-03-16T22:20:24.743Z,27.25
2018-03-16T22:22:51.612Z,29.73
2018-03-16T22:25:19.030Z,26.62
2018-03-16T22:27:45.586Z,26.52
2018-03-16T22:30:12.799Z,27.17
2018-03-16T22:32:39.314Z,23.67
2018-03-16T22:35:06.853Z,27.27
2018-03-16T22:37:33.331Z,25.90
2018-03-16T22:40:00.590Z,27.87
2018-03-16T22:42:27.393Z,23.87
2018-03-16T22:44:54.532Z,26.33
2018-03-16T22:47:21.018Z,25.83
2018-03-16T22:49:49.134Z,26.17
2018-03-16T22:52:15.630Z,23.75
2018-03-16T22:54:42.235Z,25.00
2018-03-16T22:57:08.893Z,22.65
2018-03-16T22:59:36.165Z,24.27
2018-03-16T23:02:03.483Z,25.50
2018-03-16T23:04:29.923Z,24.90
2018-03-16T23:06:56.456Z,23.67
2018-03-16T23:09:23.626Z,23.42
2018-03-16T23:11:50.084Z,22.40
2018-03-16T23:14:17.270Z,23.73
2018-03-16T23:16:43.712Z,21.35
2018-03-16T23:19:10.892Z,23.08
2018-03-16T23:21:37.307Z,21.98
2018-03-16T23:24:04.508Z,22.90
2018-03-16T23:26:32.613Z,21.67
2018-03-16T23:28:59.023Z,25.85
2018-03-16T23:31:25.520Z,24.05
2018-03-16T23:33:53.310Z,23.33
2018-03-16T23:36:19.722Z,23.65
2018-03-16T23:38:46.120Z,23.85
2018-03-16T23:41:12.545Z,23.40
2018-03-16T23:43:39.449Z,24.05
2018-03-16T23:46:05.873Z,19.45
2018-03-16T23:48:32.282Z,23.12
2018-03-16T23:50:58.718Z,21.10
2018-03-16T23:53:25.150Z,24.00
2018-03-16T23:55:52.316Z,21.77
2018-03-16T23:58:19.480Z,22.08
